sensor_id;sensor_type;location;lat;lon;timestamp;pressure;altitude;pressure_sealevel;temperature;humidity
59043;BME280;44826;51.596;5.624;2023-01-13T00:00:58;100351.25;;;8.22;92.39
59043;BME280;44826;51.596;5.624;2023-01-13T00:03:23;100353.09;;;8.16;91.97
59043;BME280;44826;51.596;5.624;2023-01-13T00:05:49;100349.69;;;8.16;92.07
59043;BME280;44826;51.596;5.624;2023-01-13T00:08:14;100340.13;;;8.18;91.53
59043;BME280;44826;51.596;5.624;2023-01-13T00:10:39;100348.78;;;8.17;91.40
59043;BME280;44826;51.596;5.624;2023-01-13T00:13:05;100345.38;;;8.15;91.44
59043;BME280;44826;51.596;5.624;2023-01-13T00:15:31;100341.97;;;8.13;91.57
59043;BME280;44826;51.596;5.624;2023-01-13T00:17:56;100343.81;;;8.08;91.60
59043;BME280;44826;51.596;5.624;2023-01-13T00:20:22;100333.44;;;8.08;90.98
59043;BME280;44826;51.596;5.624;2023-01-13T00:22:47;100327.53;;;8.02;90.52
59043;BME280;44826;51.596;5.624;2023-01-13T00:25:12;100321.53;;;8.00;90.29
59043;BME280;44826;51.596;5.624;2023-01-13T00:27:38;100316.50;;;7.94;90.38
59043;BME280;44826;51.596;5.624;2023-01-13T00:30:04;100309.66;;;7.90;90.54
59043;BME280;44826;51.596;5.624;2023-01-13T00:32:29;100315.84;;;7.84;90.40
59043;BME280;44826;51.596;5.624;2023-01-13T00:34:55;100318.56;;;7.80;90.13
59043;BME280;44826;51.596;5.624;2023-01-13T00:37:20;100308.31;;;7.75;90.22
59043;BME280;44826;51.596;5.624;2023-01-13T00:39:46;100303.16;;;7.73;89.89
59043;BME280;44826;51.596;5.624;2023-01-13T00:42:11;100304.91;;;7.71;89.21
59043;BME280;44826;51.596;5.624;2023-01-13T00:44:55;100288.66;;;7.66;89.21
59043;BME280;44826;51.596;5.624;2023-01-13T00:47:20;100297.25;;;7.67;88.75
59043;BME280;44826;51.596;5.624;2023-01-13T00:49:47;100292.13;;;7.64;88.10
59043;BME280;44826;51.596;5.624;2023-01-13T00:52:12;100294.78;;;7.62;88.55
59043;BME280;44826;51.596;5.624;2023-01-13T00:54:38;100292.25;;;7.59;88.16
59043;BME280;44826;51.596;5.624;2023-01-13T00:57:03;100294.06;;;7.55;88.13
59043;BME280;44826;51.596;5.624;2023-01-13T00:59:29;100298.44;;;7.52;88.21
59043;BME280;44826;51.596;5.624;2023-01-13T01:01:54;100292.41;;;7.51;88.23
59043;BME280;44826;51.596;5.624;2023-01-13T01:04:19;100292.47;;;7.48;88.26
59043;BME280;44826;51.596;5.624;2023-01-13T01:06:44;100303.75;;;7.46;88.21
59043;BME280;44826;51.596;5.624;2023-01-13T01:09:13;100313.25;;;7.45;88.30
59043;BME280;44826;51.596;5.624;2023-01-13T01:11:39;100326.22;;;7.43;88.58
59043;BME280;44826;51.596;5.624;2023-01-13T01:14:04;100319.28;;;7.46;88.46
59043;BME280;44826;51.596;5.624;2023-01-13T01:16:31;100323.59;;;7.45;88.49
59043;BME280;44826;51.596;5.624;2023-01-13T01:18:58;100315.88;;;7.43;88.86
59043;BME280;44826;51.596;5.624;2023-01-13T01:21:25;100323.66;;;7.43;88.87
59043;BME280;44826;51.596;5.624;2023-01-13T01:23:51;100325.34;;;7.44;88.88
59043;BME280;44826;51.596;5.624;2023-01-13T01:26:22;100330.47;;;7.46;89.07
59043;BME280;44826;51.596;5.624;2023-01-13T01:28:48;100327.91;;;7.46;89.47
59043;BME280;44826;51.596;5.624;2023-01-13T01:31:19;100325.28;;;7.48;89.27
59043;BME280;44826;51.596;5.624;2023-01-13T01:33:44;100332.13;;;7.50;89.52
59043;BME280;44826;51.596;5.624;2023-01-13T01:36:15;100325.22;;;7.51;89.08
59043;BME280;44826;51.596;5.624;2023-01-13T01:38:40;100324.31;;;7.52;89.12
59043;BME280;44826;51.596;5.624;2023-01-13T01:41:06;100325.19;;;7.52;88.97
59043;BME280;44826;51.596;5.624;2023-01-13T01:49:00;100318.31;;;7.51;88.06
59043;BME280;44826;51.596;5.624;2023-01-13T01:51:30;100321.81;;;7.49;88.10
59043;BME280;44826;51.596;5.624;2023-01-13T01:53:57;100321.00;;;7.47;87.62
59043;BME280;44826;51.596;5.624;2023-01-13T01:56:24;100321.91;;;7.44;87.42
59043;BME280;44826;51.596;5.624;2023-01-13T01:58:51;100327.94;;;7.43;87.52
59043;BME280;44826;51.596;5.624;2023-01-13T02:01:17;100315.94;;;7.40;86.66
59043;BME280;44826;51.596;5.624;2023-01-13T02:03:49;100312.53;;;7.38;86.78
59043;BME280;44826;51.596;5.624;2023-01-13T02:06:17;100308.31;;;7.34;86.53
59043;BME280;44826;51.596;5.624;2023-01-13T02:08:43;100305.75;;;7.34;86.11
59043;BME280;44826;51.596;5.624;2023-01-13T02:11:25;100309.22;;;7.33;86.27
59043;BME280;44826;51.596;5.624;2023-01-13T02:14:11;100311.84;;;7.30;85.93
59043;BME280;44826;51.596;5.624;2023-01-13T02:16:42;100305.84;;;7.28;84.78
59043;BME280;44826;51.596;5.624;2023-01-13T02:19:35;100307.63;;;7.26;85.38
59043;BME280;44826;51.596;5.624;2023-01-13T02:22:25;100305.91;;;7.25;84.63
59043;BME280;44826;51.596;5.624;2023-01-13T02:30:59;100290.59;;;7.14;84.43
59043;BME280;44826;51.596;5.624;2023-01-13T02:34:00;100312.19;;;7.13;83.47
59043;BME280;44826;51.596;5.624;2023-01-13T02:36:39;100318.28;;;7.10;83.89
59043;BME280;44826;51.596;5.624;2023-01-13T02:39:12;100318.34;;;7.07;83.39
59043;BME280;44826;51.596;5.624;2023-01-13T02:41:55;100311.47;;;7.06;83.83
59043;BME280;44826;51.596;5.624;2023-01-13T02:44:49;100314.09;;;7.05;83.59
59043;BME280;44826;51.596;5.624;2023-01-13T02:47:24;100308.97;;;7.02;83.74
59043;BME280;44826;51.596;5.624;2023-01-13T02:49:57;100308.94;;;7.03;83.94
59043;BME280;44826;51.596;5.624;2023-01-13T02:52:34;100302.03;;;7.02;84.01
59043;BME280;44826;51.596;5.624;2023-01-13T02:55:09;100296.00;;;7.03;84.15
59043;BME280;44826;51.596;5.624;2023-01-13T02:57:38;100295.13;;;7.04;83.96
59043;BME280;44826;51.596;5.624;2023-01-13T03:00:06;100295.97;;;7.05;84.32
59043;BME280;44826;51.596;5.624;2023-01-13T03:02:31;100296.81;;;7.05;84.44
59043;BME280;44826;51.596;5.624;2023-01-13T03:04:58;100294.22;;;7.07;84.52
59043;BME280;44826;51.596;5.624;2023-01-13T03:07:45;100289.06;;;7.05;84.89
59043;BME280;44826;51.596;5.624;2023-01-13T03:15:48;100288.06;;;7.11;84.71
59043;BME280;44826;51.596;5.624;2023-01-13T03:23:53;100270.75;;;7.16;84.35
59043;BME280;44826;51.596;5.624;2023-01-13T03:26:30;100255.22;;;7.16;84.05
59043;BME280;44826;51.596;5.624;2023-01-13T03:29:16;100252.59;;;7.18;84.22
59043;BME280;44826;51.596;5.624;2023-01-13T03:31:52;100247.34;;;7.21;83.74
59043;BME280;44826;51.596;5.624;2023-01-13T03:34:21;100258.56;;;7.21;83.67
59043;BME280;44826;51.596;5.624;2023-01-13T03:36:52;100253.41;;;7.20;84.13
59043;BME280;44826;51.596;5.624;2023-01-13T03:39:26;100256.66;;;7.29;83.53
59043;BME280;44826;51.596;5.624;2023-01-13T03:41:57;100276.44;;;7.32;82.89
59043;BME280;44826;51.596;5.624;2023-01-13T03:44:29;100271.19;;;7.35;82.42
59043;BME280;44826;51.596;5.624;2023-01-13T03:52:36;100255.59;;;7.38;81.03
59043;BME280;44826;51.596;5.624;2023-01-13T03:55:13;100255.53;;;7.41;79.53
59043;BME280;44826;51.596;5.624;2023-01-13T03:57:48;100253.88;;;7.39;78.87
59043;BME280;44826;51.596;5.624;2023-01-13T04:00:17;100251.34;;;7.36;78.30
59043;BME280;44826;51.596;5.624;2023-01-13T04:03:13;100257.25;;;7.42;78.43
59043;BME280;44826;51.596;5.624;2023-01-13T04:05:46;100244.34;;;7.41;76.43
59043;BME280;44826;51.596;5.624;2023-01-13T04:08:20;100252.06;;;7.42;77.10
59043;BME280;44826;51.596;5.624;2023-01-13T04:11:07;100264.13;;;7.43;76.96
59043;BME280;44826;51.596;5.624;2023-01-13T04:13:37;100260.72;;;7.41;76.66
59043;BME280;44826;51.596;5.624;2023-01-13T04:16:05;100275.28;;;7.46;76.32
59043;BME280;44826;51.596;5.624;2023-01-13T04:18:32;100277.94;;;7.42;76.39
59043;BME280;44826;51.596;5.624;2023-01-13T04:20:59;100288.34;;;7.41;76.69
59043;BME280;44826;51.596;5.624;2023-01-13T04:23:26;100289.22;;;7.40;76.69
59043;BME280;44826;51.596;5.624;2023-01-13T04:25:53;100290.13;;;7.37;77.16
59043;BME280;44826;51.596;5.624;2023-01-13T04:28:18;100300.56;;;7.34;77.44
59043;BME280;44826;51.596;5.624;2023-01-13T04:30:44;100293.75;;;7.30;78.13
59043;BME280;44826;51.596;5.624;2023-01-13T04:33:10;100293.81;;;7.27;78.52
59043;BME280;44826;51.596;5.624;2023-01-13T04:35:36;100286.16;;;7.21;79.36
59043;BME280;44826;51.596;5.624;2023-01-13T04:38:08;100301.66;;;7.22;79.85
59043;BME280;44826;51.596;5.624;2023-01-13T04:40:33;100307.66;;;7.24;80.50
59043;BME280;44826;51.596;5.624;2023-01-13T04:42:59;100304.25;;;7.21;80.78
59043;BME280;44826;51.596;5.624;2023-01-13T04:45:24;100305.13;;;7.21;80.88
59043;BME280;44826;51.596;5.624;2023-01-13T04:47:49;100293.19;;;7.16;81.87
59043;BME280;44826;51.596;5.624;2023-01-13T04:50:15;100297.47;;;7.17;81.68
59043;BME280;44826;51.596;5.624;2023-01-13T04:52:45;100299.25;;;7.14;81.88
59043;BME280;44826;51.596;5.624;2023-01-13T04:55:11;100292.34;;;7.13;82.42
59043;BME280;44826;51.596;5.624;2023-01-13T04:57:36;100299.34;;;7.08;82.97
59043;BME280;44826;51.596;5.624;2023-01-13T05:00:05;100288.19;;;7.06;82.76
59043;BME280;44826;51.596;5.624;2023-01-13T05:02:31;100276.22;;;7.01;83.47
59043;BME280;44826;51.596;5.624;2023-01-13T05:04:57;100286.53;;;7.02;83.08
59043;BME280;44826;51.596;5.624;2023-01-13T05:07:22;100276.34;;;6.94;83.65
59043;BME280;44826;51.596;5.624;2023-01-13T05:09:48;100291.91;;;6.93;83.74
59043;BME280;44826;51.596;5.624;2023-01-13T05:12:13;100278.19;;;6.89;83.91
59043;BME280;44826;51.596;5.624;2023-01-13T05:14:57;100262.72;;;6.86;84.02
59043;BME280;44826;51.596;5.624;2023-01-13T05:17:41;100267.91;;;6.86;83.92
59043;BME280;44826;51.596;5.624;2023-01-13T05:20:07;100255.84;;;6.83;84.09
59043;BME280;44826;51.596;5.624;2023-01-13T05:22:33;100262.00;;;6.79;84.50
59043;BME280;44826;51.596;5.624;2023-01-13T05:25:16;100283.56;;;6.78;83.93
59043;BME280;44826;51.596;5.624;2023-01-13T05:27:54;100265.41;;;6.81;84.20
59043;BME280;44826;51.596;5.624;2023-01-13T05:30:22;100276.69;;;6.77;84.69
59043;BME280;44826;51.596;5.624;2023-01-13T05:32:48;100291.38;;;6.75;84.81
59043;BME280;44826;51.596;5.624;2023-01-13T05:35:13;100271.53;;;6.76;84.81
59043;BME280;44826;51.596;5.624;2023-01-13T05:37:41;100290.53;;;6.73;84.56
59043;BME280;44826;51.596;5.624;2023-01-13T05:40:07;100294.84;;;6.74;84.40
59043;BME280;44826;51.596;5.624;2023-01-13T05:43:14;100302.63;;;6.71;84.68
59043;BME280;44826;51.596;5.624;2023-01-13T05:48:18;100297.38;;;6.76;84.42
59043;BME280;44826;51.596;5.624;2023-01-13T05:50:44;100305.13;;;6.77;84.38
59043;BME280;44826;51.596;5.624;2023-01-13T05:53:10;100307.75;;;6.74;84.35
59043;BME280;44826;51.596;5.624;2023-01-13T05:55:39;100313.75;;;6.75;84.41
59043;BME280;44826;51.596;5.624;2023-01-13T05:58:08;100317.28;;;6.72;84.17
59043;BME280;44826;51.596;5.624;2023-01-13T06:00:34;100323.31;;;6.71;84.00
59043;BME280;44826;51.596;5.624;2023-01-13T06:03:00;100328.53;;;6.68;84.31
59043;BME280;44826;51.596;5.624;2023-01-13T06:05:26;100320.78;;;6.68;83.97
59043;BME280;44826;51.596;5.624;2023-01-13T06:07:55;100324.31;;;6.64;84.26
59043;BME280;44826;51.596;5.624;2023-01-13T06:10:20;100317.44;;;6.63;84.13
59043;BME280;44826;51.596;5.624;2023-01-13T06:12:46;100322.66;;;6.60;84.25
59043;BME280;44826;51.596;5.624;2023-01-13T06:15:11;100328.75;;;6.57;84.29
59043;BME280;44826;51.596;5.624;2023-01-13T06:17:36;100324.47;;;6.56;84.00
59043;BME280;44826;51.596;5.624;2023-01-13T06:20:01;100329.63;;;6.55;84.28
59043;BME280;44826;51.596;5.624;2023-01-13T06:22:28;100320.16;;;6.55;83.78
59043;BME280;44826;51.596;5.624;2023-01-13T06:24:57;100328.75;;;6.57;83.58
59043;BME280;44826;51.596;5.624;2023-01-13T06:27:22;100328.81;;;6.52;83.47
59043;BME280;44826;51.596;5.624;2023-01-13T06:29:48;100328.81;;;6.52;83.51
59043;BME280;44826;51.596;5.624;2023-01-13T06:32:17;100327.19;;;6.48;83.53
59043;BME280;44826;51.596;5.624;2023-01-13T06:34:49;100324.59;;;6.47;83.66
59043;BME280;44826;51.596;5.624;2023-01-13T06:37:17;100323.72;;;6.48;83.30
59043;BME280;44826;51.596;5.624;2023-01-13T06:39:46;100332.41;;;6.45;83.49
59043;BME280;44826;51.596;5.624;2023-01-13T06:42:12;100335.00;;;6.44;83.54
59043;BME280;44826;51.596;5.624;2023-01-13T06:44:56;100334.16;;;6.43;83.42
59043;BME280;44826;51.596;5.624;2023-01-13T06:47:21;100340.19;;;6.41;83.59
59043;BME280;44826;51.596;5.624;2023-01-13T06:49:47;100339.31;;;6.42;83.44
59043;BME280;44826;51.596;5.624;2023-01-13T06:52:13;100342.78;;;6.41;83.16
59043;BME280;44826;51.596;5.624;2023-01-13T06:54:38;100336.00;;;6.36;83.42
59043;BME280;44826;51.596;5.624;2023-01-13T06:57:04;100331.66;;;6.38;83.71
59043;BME280;44826;51.596;5.624;2023-01-13T06:59:29;100331.69;;;6.35;83.39
59043;BME280;44826;51.596;5.624;2023-01-13T07:01:54;100317.06;;;6.33;83.34
59043;BME280;44826;51.596;5.624;2023-01-13T07:04:20;100327.41;;;6.34;83.28
59043;BME280;44826;51.596;5.624;2023-01-13T07:06:45;100333.47;;;6.32;83.32
59043;BME280;44826;51.596;5.624;2023-01-13T07:09:10;100336.88;;;6.34;82.77
59043;BME280;44826;51.596;5.624;2023-01-13T07:11:36;100340.31;;;6.33;82.90
59043;BME280;44826;51.596;5.624;2023-01-13T07:14:01;100334.22;;;6.38;82.34
59043;BME280;44826;51.596;5.624;2023-01-13T07:16:45;100334.16;;;6.43;82.32
59043;BME280;44826;51.596;5.624;2023-01-13T07:19:10;100334.16;;;6.43;81.88
59043;BME280;44826;51.596;5.624;2023-01-13T07:21:36;100342.75;;;6.44;81.80
59043;BME280;44826;51.596;5.624;2023-01-13T07:24:01;100345.31;;;6.45;81.53
59043;BME280;44826;51.596;5.624;2023-01-13T07:26:26;100350.47;;;6.45;81.65
59043;BME280;44826;51.596;5.624;2023-01-13T07:28:52;100347.06;;;6.42;81.54
59043;BME280;44826;51.596;5.624;2023-01-13T07:31:19;100343.66;;;6.41;81.60
59043;BME280;44826;51.596;5.624;2023-01-13T07:33:47;100348.78;;;6.43;81.37
59043;BME280;44826;51.596;5.624;2023-01-13T07:36:13;100341.03;;;6.43;80.83
59043;BME280;44826;51.596;5.624;2023-01-13T07:38:39;100353.06;;;6.45;80.24
59043;BME280;44826;51.596;5.624;2023-01-13T07:41:05;100354.78;;;6.45;80.31
59043;BME280;44826;51.596;5.624;2023-01-13T07:43:49;100350.53;;;6.42;80.29
59043;BME280;44826;51.596;5.624;2023-01-13T07:46:15;100351.41;;;6.41;80.04
59043;BME280;44826;51.596;5.624;2023-01-13T07:48:41;100366.91;;;6.41;80.12
59043;BME280;44826;51.596;5.624;2023-01-13T07:51:08;100365.19;;;6.40;80.03
59043;BME280;44826;51.596;5.624;2023-01-13T07:53:35;100371.28;;;6.36;80.28
59043;BME280;44826;51.596;5.624;2023-01-13T07:56:01;100360.94;;;6.37;80.26
59043;BME280;44826;51.596;5.624;2023-01-13T07:58:28;100383.25;;;6.43;79.53
59043;BME280;44826;51.596;5.624;2023-01-13T08:00:54;100371.16;;;6.45;79.40
59043;BME280;44826;51.596;5.624;2023-01-13T08:03:20;100378.91;;;6.45;79.14
59043;BME280;44826;51.596;5.624;2023-01-13T08:05:46;100391.81;;;6.45;78.97
59043;BME280;44826;51.596;5.624;2023-01-13T08:08:11;100372.88;;;6.46;79.03
59043;BME280;44826;51.596;5.624;2023-01-13T08:10:37;100378.03;;;6.45;79.73
59043;BME280;44826;51.596;5.624;2023-01-13T08:13:14;100378.94;;;6.42;79.94
59043;BME280;44826;51.596;5.624;2023-01-13T08:15:44;100384.09;;;6.44;79.65
59043;BME280;44826;51.596;5.624;2023-01-13T08:18:10;100394.38;;;6.48;79.24
59043;BME280;44826;51.596;5.624;2023-01-13T08:20:36;100392.59;;;6.50;79.41
59043;BME280;44826;51.596;5.624;2023-01-13T08:23:01;100407.22;;;6.51;79.48
59043;BME280;44826;51.596;5.624;2023-01-13T08:25:28;100410.69;;;6.50;79.85
59043;BME280;44826;51.596;5.624;2023-01-13T08:27:53;100403.75;;;6.52;79.48
59043;BME280;44826;51.596;5.624;2023-01-13T08:30:20;100402.91;;;6.52;79.73
59043;BME280;44826;51.596;5.624;2023-01-13T08:32:46;100405.41;;;6.57;79.79
59043;BME280;44826;51.596;5.624;2023-01-13T08:35:12;100402.81;;;6.58;79.82
59043;BME280;44826;51.596;5.624;2023-01-13T08:37:38;100402.00;;;6.55;79.79
59043;BME280;44826;51.596;5.624;2023-01-13T08:40:04;100408.00;;;6.57;79.90
59043;BME280;44826;51.596;5.624;2023-01-13T08:42:29;100414.06;;;6.56;80.35
59043;BME280;44826;51.596;5.624;2023-01-13T08:44:55;100416.56;;;6.60;80.20
59043;BME280;44826;51.596;5.624;2023-01-13T08:47:21;100412.22;;;6.62;80.31
59043;BME280;44826;51.596;5.624;2023-01-13T08:49:46;100420.78;;;6.66;80.54
59043;BME280;44826;51.596;5.624;2023-01-13T08:52:12;100410.38;;;6.69;80.03
59043;BME280;44826;51.596;5.624;2023-01-13T08:54:38;100406.91;;;6.72;80.22
59043;BME280;44826;51.596;5.624;2023-01-13T08:57:03;100416.38;;;6.73;80.32
59043;BME280;44826;51.596;5.624;2023-01-13T08:59:29;100412.00;;;6.76;79.86
59043;BME280;44826;51.596;5.624;2023-01-13T09:01:54;100418.78;;;6.82;79.75
59043;BME280;44826;51.596;5.624;2023-01-13T09:04:22;100411.00;;;6.83;79.80
59043;BME280;44826;51.596;5.624;2023-01-13T09:06:48;100417.75;;;6.92;79.38
59043;BME280;44826;51.596;5.624;2023-01-13T09:09:14;100411.63;;;6.98;78.67
59043;BME280;44826;51.596;5.624;2023-01-13T09:11:42;100415.06;;;6.98;78.60
59043;BME280;44826;51.596;5.624;2023-01-13T09:14:30;100404.75;;;6.97;79.05
59043;BME280;44826;51.596;5.624;2023-01-13T09:16:56;100409.84;;;7.02;79.14
59043;BME280;44826;51.596;5.624;2023-01-13T09:19:21;100401.97;;;7.08;79.03
59043;BME280;44826;51.596;5.624;2023-01-13T09:21:47;100414.63;;;7.22;78.64
59043;BME280;44826;51.596;5.624;2023-01-13T09:24:12;100416.19;;;7.32;78.07
59043;BME280;44826;51.596;5.624;2023-01-13T09:26:37;100427.22;;;7.42;77.07
59043;BME280;44826;51.596;5.624;2023-01-13T09:29:03;100422.75;;;7.49;77.48
59043;BME280;44826;51.596;5.624;2023-01-13T09:31:28;100435.56;;;7.55;77.21
59043;BME280;44826;51.596;5.624;2023-01-13T09:33:54;100441.50;;;7.60;77.08
59043;BME280;44826;51.596;5.624;2023-01-13T09:36:37;100447.41;;;7.67;76.84
59043;BME280;44826;51.596;5.624;2023-01-13T09:39:04;100449.91;;;7.71;76.29
59043;BME280;44826;51.596;5.624;2023-01-13T09:41:33;100450.84;;;7.69;76.73
59043;BME280;44826;51.596;5.624;2023-01-13T09:49:45;100470.75;;;7.65;76.10
59043;BME280;44826;51.596;5.624;2023-01-13T09:52:16;100482.81;;;7.66;76.33
59043;BME280;44826;51.596;5.624;2023-01-13T09:54:50;100490.50;;;7.69;76.21
59043;BME280;44826;51.596;5.624;2023-01-13T09:57:18;100497.50;;;7.66;77.15
59043;BME280;44826;51.596;5.624;2023-01-13T09:59:44;100486.34;;;7.62;77.11
59043;BME280;44826;51.596;5.624;2023-01-13T10:02:25;100503.59;;;7.63;76.62
59043;BME280;44826;51.596;5.624;2023-01-13T10:07:31;100497.06;;;7.43;78.38
59043;BME280;44826;51.596;5.624;2023-01-13T10:10:00;100487.63;;;7.41;78.65
59043;BME280;44826;51.596;5.624;2023-01-13T10:12:27;100497.06;;;7.43;77.95
59043;BME280;44826;51.596;5.624;2023-01-13T10:15:19;100502.19;;;7.45;78.36
59043;BME280;44826;51.596;5.624;2023-01-13T10:18:08;100495.25;;;7.47;78.26
59043;BME280;44826;51.596;5.624;2023-01-13T10:21:30;100503.69;;;7.57;78.29
59043;BME280;44826;51.596;5.624;2023-01-13T10:24:02;100505.34;;;7.61;78.43
59043;BME280;44826;51.596;5.624;2023-01-13T10:26:41;100498.56;;;7.54;79.50
59043;BME280;44826;51.596;5.624;2023-01-13T10:29:23;100491.78;;;7.50;79.81
59043;BME280;44826;51.596;5.624;2023-01-13T10:31:55;100504.00;;;7.41;80.70
59043;BME280;44826;51.596;5.624;2023-01-13T10:34:22;100502.31;;;7.37;81.50
59043;BME280;44826;51.596;5.624;2023-01-13T10:39:21;100507.63;;;7.31;82.69
59043;BME280;44826;51.596;5.624;2023-01-13T10:41:46;100507.69;;;7.28;82.31
59043;BME280;44826;51.596;5.624;2023-01-13T10:44:16;100519.78;;;7.26;82.74
59043;BME280;44826;51.596;5.624;2023-01-13T10:46:53;100533.66;;;7.22;83.01
59043;BME280;44826;51.596;5.624;2023-01-13T10:49:35;100525.06;;;7.20;83.07
59043;BME280;44826;51.596;5.624;2023-01-13T10:52:02;100542.28;;;7.21;82.60
59043;BME280;44826;51.596;5.624;2023-01-13T10:54:29;100534.59;;;7.16;83.40
59043;BME280;44826;51.596;5.624;2023-01-13T10:57:17;100547.59;;;7.14;83.16
59043;BME280;44826;51.596;5.624;2023-01-13T10:59:43;100543.28;;;7.13;83.45
59043;BME280;44826;51.596;5.624;2023-01-13T11:07:34;100545.75;;;7.21;83.64
59043;BME280;44826;51.596;5.624;2023-01-13T11:10:24;100549.22;;;7.19;83.76
59043;BME280;44826;51.596;5.624;2023-01-13T11:13:11;100550.09;;;7.19;84.05
59043;BME280;44826;51.596;5.624;2023-01-13T11:16:07;100550.91;;;7.21;83.83
59043;BME280;44826;51.596;5.624;2023-01-13T11:21:22;100550.00;;;7.24;84.15
59043;BME280;44826;51.596;5.624;2023-01-13T11:24:03;100551.75;;;7.22;83.91
59043;BME280;44826;51.596;5.624;2023-01-13T11:26:42;100557.72;;;7.27;83.35
59043;BME280;44826;51.596;5.624;2023-01-13T11:29:23;100560.25;;;7.30;83.11
59043;BME280;44826;51.596;5.624;2023-01-13T11:31:58;100561.94;;;7.33;82.44
59043;BME280;44826;51.596;5.624;2023-01-13T11:34:34;100560.13;;;7.36;82.33
59043;BME280;44826;51.596;5.624;2023-01-13T11:37:06;100555.78;;;7.38;81.96
59043;BME280;44826;51.596;5.624;2023-01-13T11:39:52;100560.09;;;7.39;81.87
59043;BME280;44826;51.596;5.624;2023-01-13T11:42:25;100556.66;;;7.37;81.79
59043;BME280;44826;51.596;5.624;2023-01-13T11:45:16;100564.44;;;7.37;81.72
59043;BME280;44826;51.596;5.624;2023-01-13T11:47:47;100578.25;;;7.36;81.31
59043;BME280;44826;51.596;5.624;2023-01-13T11:50:18;100573.94;;;7.37;80.52
59043;BME280;44826;51.596;5.624;2023-01-13T11:53:08;100573.06;;;7.36;80.93
59043;BME280;44826;51.596;5.624;2023-01-13T12:07:57;100586.50;;;7.60;79.73
59043;BME280;44826;51.596;5.624;2023-01-13T12:10:39;100594.31;;;7.58;79.74
59043;BME280;44826;51.596;5.624;2023-01-13T12:18:33;100608.97;;;7.58;79.41
59043;BME280;44826;51.596;5.624;2023-01-13T12:21:23;100615.03;;;7.57;79.17
59043;BME280;44826;51.596;5.624;2023-01-13T12:26:33;100613.31;;;7.57;78.58
59043;BME280;44826;51.596;5.624;2023-01-13T12:29:08;100607.28;;;7.54;78.75
59043;BME280;44826;51.596;5.624;2023-01-13T12:31:37;100603.88;;;7.53;78.35
59043;BME280;44826;51.596;5.624;2023-01-13T12:34:29;100609.91;;;7.52;78.93
59043;BME280;44826;51.596;5.624;2023-01-13T12:37:25;100615.06;;;7.55;78.67
59043;BME280;44826;51.596;5.624;2023-01-13T12:45:37;100633.19;;;7.54;78.39
59043;BME280;44826;51.596;5.624;2023-01-13T12:48:03;100621.06;;;7.56;78.09
59043;BME280;44826;51.596;5.624;2023-01-13T12:52:56;100619.28;;;7.61;77.24
59043;BME280;44826;51.596;5.624;2023-01-13T12:55:31;100645.94;;;7.65;77.50
59043;BME280;44826;51.596;5.624;2023-01-13T13:11:21;100663.16;;;7.69;76.43
59043;BME280;44826;51.596;5.624;2023-01-13T13:14:11;100653.63;;;7.71;76.13
59043;BME280;44826;51.596;5.624;2023-01-13T13:16:49;100663.13;;;7.70;76.57
59043;BME280;44826;51.596;5.624;2023-01-13T13:27:25;100672.50;;;7.78;75.54
59043;BME280;44826;51.596;5.624;2023-01-13T13:29:57;100683.69;;;7.78;75.21
59043;BME280;44826;51.596;5.624;2023-01-13T13:32:34;100694.09;;;7.77;75.22
59043;BME280;44826;51.596;5.624;2023-01-13T13:35:13;100700.94;;;7.81;75.50
59043;BME280;44826;51.596;5.624;2023-01-13T13:37:53;100688.91;;;7.77;75.45
59043;BME280;44826;51.596;5.624;2023-01-13T13:40:43;100708.84;;;7.71;75.64
59043;BME280;44826;51.596;5.624;2023-01-13T13:43:36;100720.16;;;7.67;76.14
59043;BME280;44826;51.596;5.624;2023-01-13T13:46:24;100721.84;;;7.70;76.37
59043;BME280;44826;51.596;5.624;2023-01-13T13:49:08;100720.16;;;7.67;75.54
59043;BME280;44826;51.596;5.624;2023-01-13T13:51:59;100735.63;;;7.70;75.73
59043;BME280;44826;51.596;5.624;2023-01-13T13:54:26;100732.19;;;7.70;75.80
59043;BME280;44826;51.596;5.624;2023-01-13T13:56:52;100728.72;;;7.71;76.18
59043;BME280;44826;51.596;5.624;2023-01-13T13:59:23;100731.31;;;7.69;76.22
59043;BME280;44826;51.596;5.624;2023-01-13T14:01:53;100734.78;;;7.70;76.07
59043;BME280;44826;51.596;5.624;2023-01-13T14:04:26;100757.22;;;7.71;76.25
59043;BME280;44826;51.596;5.624;2023-01-13T14:06:56;100754.56;;;7.74;75.72
59043;BME280;44826;51.596;5.624;2023-01-13T14:09:24;100759.75;;;7.72;75.81
59043;BME280;44826;51.596;5.624;2023-01-13T14:11:56;100769.19;;;7.77;75.49
59043;BME280;44826;51.596;5.624;2023-01-13T14:14:21;100770.91;;;7.78;75.85
59043;BME280;44826;51.596;5.624;2023-01-13T14:16:47;100771.75;;;7.80;75.95
59043;BME280;44826;51.596;5.624;2023-01-13T14:21:47;100780.19;;;7.91;75.51
59043;BME280;44826;51.596;5.624;2023-01-13T14:24:14;100785.38;;;7.93;75.44
59043;BME280;44826;51.596;5.624;2023-01-13T14:26:40;100788.84;;;7.92;75.09
59043;BME280;44826;51.596;5.624;2023-01-13T14:29:05;100785.47;;;7.86;75.19
59043;BME280;44826;51.596;5.624;2023-01-13T14:31:31;100790.69;;;7.85;75.76
59043;BME280;44826;51.596;5.624;2023-01-13T14:34:00;100800.16;;;7.84;75.81
59043;BME280;44826;51.596;5.624;2023-01-13T14:43:58;100827.84;;;7.79;76.24
59043;BME280;44826;51.596;5.624;2023-01-13T14:46:37;100820.97;;;7.80;76.03
59043;BME280;44826;51.596;5.624;2023-01-13T14:49:04;100830.44;;;7.79;76.07
59043;BME280;44826;51.596;5.624;2023-01-13T14:51:30;100838.28;;;7.76;76.54
59043;BME280;44826;51.596;5.624;2023-01-13T14:53:56;100840.88;;;7.76;75.87
59043;BME280;44826;51.596;5.624;2023-01-13T15:01:56;100848.66;;;7.74;76.44
59043;BME280;44826;51.596;5.624;2023-01-13T15:04:25;100846.94;;;7.73;76.36
59043;BME280;44826;51.596;5.624;2023-01-13T15:06:53;100857.28;;;7.73;76.08
59043;BME280;44826;51.596;5.624;2023-01-13T15:09:24;100852.09;;;7.73;76.14
59043;BME280;44826;51.596;5.624;2023-01-13T15:11:51;100865.06;;;7.73;76.77
59043;BME280;44826;51.596;5.624;2023-01-13T15:14:23;100873.78;;;7.68;76.55